createdAt,value
2023-03-18T00:02:02.237Z,8.80
2023-03-18T00:04:29.475Z,9.95
2023-03-18T00:06:57.034Z,9.07
2023-03-18T00:09:24.127Z,9.75
2023-03-18T00:11:51.080Z,9.63
2023-03-18T00:14:19.254Z,9.05
2023-03-18T00:16:46.004Z,9.55
2023-03-18T00:19:13.044Z,9.95
2023-03-18T00:21:39.949Z,10.57
2023-03-18T00:24:07.414Z,9.25
2023-03-18T00:26:34.291Z,9.20
2023-03-18T00:29:02.136Z,8.38
2023-03-18T00:31:29.742Z,8.77
2023-03-18T00:33:57.900Z,9.38
2023-03-18T00:36:26.168Z,9.10
2023-03-18T00:38:57.782Z,8.75
2023-03-18T00:41:30.351Z,8.85
2023-03-18T00:43:57.173Z,8.30
2023-03-18T00:46:35.082Z,9.05
2023-03-18T00:49:06.214Z,7.93
2023-03-18T00:51:36.574Z,8.10
2023-03-18T00:54:07.938Z,8.25
2023-03-18T00:56:37.595Z,8.98
2023-03-18T00:59:07.476Z,8.57
2023-03-18T01:01:36.482Z,8.45
2023-03-18T01:04:04.411Z,9.30
2023-03-18T01:06:34.622Z,8.85
2023-03-18T01:09:04.698Z,8.27
2023-03-18T01:11:33.227Z,8.77
2023-03-18T01:14:00.586Z,8.63
2023-03-18T01:16:29.766Z,7.82
2023-03-18T01:18:57.250Z,8.05
2023-03-18T01:21:24.143Z,8.18
2023-03-18T01:23:55.325Z,8.60
2023-03-18T01:26:23.013Z,8.07
2023-03-18T01:28:50.010Z,8.00
2023-03-18T01:31:16.984Z,8.55
2023-03-18T01:33:47.674Z,8.50
2023-03-18T01:36:15.521Z,8.55
2023-03-18T01:38:42.758Z,8.85
2023-03-18T01:41:14.464Z,8.10
2023-03-18T01:43:43.440Z,7.90
2023-03-18T01:46:44.787Z,8.98
2023-03-18T01:49:25.689Z,8.40
2023-03-18T01:52:16.121Z,8.93
2023-03-18T01:54:59.807Z,8.68
2023-03-18T01:57:29.045Z,8.13
2023-03-18T01:59:57.878Z,8.73
2023-03-18T02:02:26.178Z,9.73
2023-03-18T02:05:01.798Z,11.70
2023-03-18T02:07:35.697Z,10.82
2023-03-18T02:10:10.936Z,10.45
2023-03-18T02:12:44.047Z,11.20
2023-03-18T02:15:18.265Z,11.60
2023-03-18T02:17:58.942Z,11.98
2023-03-18T02:21:14.169Z,12.40
2023-03-18T02:24:05.826Z,11.95
2023-03-18T02:26:53.291Z,12.00
2023-03-18T02:29:31.895Z,13.70
2023-03-18T02:32:07.386Z,12.93
2023-03-18T02:34:37.108Z,12.32
2023-03-18T02:37:04.242Z,12.98
2023-03-18T02:39:31.836Z,13.43
2023-03-18T02:42:00.990Z,13.02
2023-03-18T02:44:28.985Z,13.15
2023-03-18T02:47:21.750Z,12.35
2023-03-18T02:49:49.714Z,12.68
2023-03-18T02:52:16.660Z,13.55
2023-03-18T02:54:43.518Z,13.27
2023-03-18T02:57:10.616Z,13.10
2023-03-18T02:59:39.790Z,13.80
2023-03-18T03:02:07.087Z,13.43
2023-03-18T03:04:34.020Z,13.60
2023-03-18T03:07:02.118Z,13.80
2023-03-18T03:09:37.674Z,13.82
2023-03-18T03:12:06.588Z,13.65
2023-03-18T03:14:34.712Z,14.02
2023-03-18T03:17:02.622Z,14.13
2023-03-18T03:19:30.780Z,14.23
2023-03-18T03:21:58.939Z,14.63
2023-03-18T03:24:26.379Z,15.05
2023-03-18T03:26:53.492Z,14.07
2023-03-18T03:29:20.546Z,13.32
2023-03-18T03:31:49.474Z,13.95
2023-03-18T03:34:16.344Z,15.60
2023-03-18T03:36:43.114Z,14.48
2023-03-18T03:39:10.630Z,13.90
2023-03-18T03:41:37.552Z,14.13
2023-03-18T03:44:04.905Z,13.93
2023-03-18T03:46:32.169Z,14.25
2023-03-18T03:48:59.522Z,13.70
2023-03-18T03:51:26.350Z,14.02
2023-03-18T03:53:54.021Z,13.32
2023-03-18T03:56:21.084Z,13.70
2023-03-18T03:58:48.011Z,13.48
2023-03-18T04:01:15.233Z,13.95
2023-03-18T04:03:44.379Z,13.32
2023-03-18T04:06:12.034Z,13.30
2023-03-18T04:08:46.208Z,13.60
2023-03-18T04:11:13.395Z,12.63
2023-03-18T04:13:41.570Z,12.80
2023-03-18T04:16:09.480Z,12.27
2023-03-18T04:18:36.363Z,13.57
2023-03-18T04:21:04.817Z,13.70
2023-03-18T04:23:45.688Z,12.90
2023-03-18T04:26:13.034Z,13.48
2023-03-18T04:28:40.483Z,13.48
2023-03-18T04:31:08.887Z,13.15
2023-03-18T04:33:36.000Z,12.65
2023-03-18T04:36:02.952Z,12.80
2023-03-18T04:38:30.483Z,12.90
2023-03-18T04:40:57.290Z,14.05
2023-03-18T04:43:24.418Z,12.30
2023-03-18T04:45:51.880Z,13.18
2023-03-18T04:48:19.363Z,12.88
2023-03-18T04:50:46.665Z,12.85
2023-03-18T04:53:19.808Z,13.20
2023-03-18T04:55:50.802Z,13.23
2023-03-18T04:58:19.460Z,13.00
2023-03-18T05:00:58.720Z,12.77
2023-03-18T05:03:32.899Z,12.02
2023-03-18T05:06:00.003Z,13.27
2023-03-18T05:08:36.289Z,12.00
2023-03-18T05:11:03.408Z,13.02
2023-03-18T05:13:31.641Z,12.75
2023-03-18T05:15:59.126Z,12.80
2023-03-18T05:18:26.156Z,12.50
2023-03-18T05:20:54.848Z,12.20
2023-03-18T05:23:22.444Z,12.38
2023-03-18T05:25:53.522Z,12.50
2023-03-18T05:28:22.941Z,12.43
2023-03-18T05:31:07.962Z,11.95
2023-03-18T05:33:39.130Z,12.00
2023-03-18T05:36:06.580Z,12.65
2023-03-18T05:38:39.267Z,12.07
2023-03-18T05:41:06.218Z,11.63
2023-03-18T05:43:38.513Z,12.48
2023-03-18T05:46:05.855Z,13.00
2023-03-18T05:48:43.468Z,12.65
2023-03-18T05:51:10.341Z,12.65
2023-03-18T05:53:39.309Z,12.65
2023-03-18T05:56:16.442Z,13.18
2023-03-18T05:58:45.806Z,12.23
2023-03-18T06:01:33.529Z,12.70
2023-03-18T06:04:02.115Z,13.25
2023-03-18T06:06:29.138Z,12.75
2023-03-18T06:08:56.320Z,12.70
2023-03-18T06:11:24.418Z,12.07
2023-03-18T06:13:52.171Z,11.98
2023-03-18T06:16:19.262Z,12.77
2023-03-18T06:18:46.267Z,12.77
2023-03-18T06:21:15.488Z,12.52
2023-03-18T06:23:42.742Z,12.50
2023-03-18T06:26:09.885Z,12.13
2023-03-18T06:28:44.578Z,12.38
2023-03-18T06:31:11.841Z,12.35
2023-03-18T06:33:40.005Z,12.50
2023-03-18T06:36:10.590Z,12.48
2023-03-18T06:38:43.744Z,12.05
2023-03-18T06:41:11.725Z,12.50
2023-03-18T06:43:44.663Z,11.93
2023-03-18T06:46:11.691Z,11.95
2023-03-18T06:48:40.267Z,11.95
2023-03-18T06:51:08.049Z,12.10
2023-03-18T06:53:39.739Z,12.45
2023-03-18T06:56:07.797Z,11.52
2023-03-18T06:58:45.804Z,11.63
2023-03-18T07:01:13.919Z,12.50
2023-03-18T07:03:43.646Z,11.80
2023-03-18T07:06:11.965Z,11.40
2023-03-18T07:08:40.529Z,11.65
2023-03-18T07:11:07.581Z,11.63
2023-03-18T07:13:38.242Z,12.00
2023-03-18T07:16:08.699Z,12.05
2023-03-18T07:18:35.639Z,11.80
2023-03-18T07:21:02.411Z,12.35
2023-03-18T07:23:29.252Z,11.88
2023-03-18T07:25:57.472Z,12.10
2023-03-18T07:28:24.655Z,12.32
2023-03-18T07:30:54.083Z,11.80
2023-03-18T07:33:21.104Z,12.40
2023-03-18T07:35:48.288Z,12.63
2023-03-18T07:38:15.056Z,12.60
2023-03-18T07:40:42.799Z,12.15
2023-03-18T07:43:09.654Z,13.25
2023-03-18T07:45:37.155Z,12.93
2023-03-18T07:48:05.490Z,11.98
2023-03-18T07:50:32.723Z,11.77
2023-03-18T07:52:59.762Z,12.85
2023-03-18T07:55:26.574Z,13.20
2023-03-18T07:57:53.837Z,13.07
2023-03-18T08:00:22.202Z,13.75
2023-03-18T08:02:49.030Z,13.38
2023-03-18T08:05:15.976Z,13.45
2023-03-18T08:07:42.885Z,13.50
2023-03-18T08:10:11.359Z,12.55
2023-03-18T08:12:52.231Z,12.82
2023-03-18T08:15:21.869Z,12.68
2023-03-18T08:17:49.186Z,12.65
2023-03-18T08:20:16.045Z,12.70
2023-03-18T08:22:42.934Z,12.77
2023-03-18T08:25:11.611Z,12.25
2023-03-18T08:27:38.532Z,11.93
2023-03-18T08:30:06.907Z,11.38
2023-03-18T08:32:33.876Z,11.82
2023-03-18T08:35:01.795Z,10.50
2023-03-18T08:37:28.807Z,12.20
2023-03-18T08:39:55.710Z,11.75
2023-03-18T08:42:22.651Z,11.40
2023-03-18T08:44:50.883Z,11.32
2023-03-18T08:47:17.694Z,11.85
2023-03-18T08:49:44.630Z,11.90
2023-03-18T08:52:11.855Z,11.43
2023-03-18T08:54:38.998Z,11.00
2023-03-18T08:57:06.027Z,11.98
2023-03-18T08:59:32.820Z,11.68
2023-03-18T09:01:59.937Z,11.48
2023-03-18T09:04:26.790Z,12.00
2023-03-18T09:06:53.929Z,11.88
2023-03-18T09:09:24.491Z,11.73
2023-03-18T09:11:54.514Z,11.20
2023-03-18T09:14:21.345Z,11.23
2023-03-18T09:16:48.191Z,11.77
2023-03-18T09:19:15.077Z,11.23
2023-03-18T09:21:42.035Z,11.68
2023-03-18T09:24:09.153Z,11.65
2023-03-18T09:26:36.019Z,11.48
2023-03-18T09:29:02.813Z,11.25
2023-03-18T09:31:30.654Z,11.82
2023-03-18T09:33:57.471Z,11.38
2023-03-18T09:36:24.310Z,10.95
2023-03-18T09:38:51.074Z,10.85
2023-03-18T09:41:42.676Z,11.07
2023-03-18T09:44:23.949Z,12.00
2023-03-18T09:47:26.865Z,11.80
2023-03-18T09:50:32.377Z,11.88
2023-03-18T09:53:14.144Z,12.25
2023-03-18T09:55:53.033Z,12.35
2023-03-18T09:58:42.211Z,11.52
2023-03-18T10:01:13.130Z,11.88
2023-03-18T10:04:01.871Z,11.25
2023-03-18T10:06:28.979Z,10.88
2023-03-18T10:09:28.855Z,10.57
2023-03-18T10:12:16.969Z,10.32
2023-03-18T10:15:04.216Z,9.50
2023-03-18T10:17:56.233Z,10.43
2023-03-18T10:20:59.121Z,8.80
2023-03-18T10:23:58.653Z,7.63
2023-03-18T10:26:40.382Z,8.65
2023-03-18T10:29:34.863Z,7.47
2023-03-18T10:32:48.772Z,7.90
2023-03-18T10:36:08.187Z,8.15
2023-03-18T10:38:44.727Z,6.15
2023-03-18T10:41:36.855Z,5.70
2023-03-18T10:44:23.554Z,6.20
2023-03-18T10:47:02.197Z,6.45
2023-03-18T10:49:38.605Z,6.70
2023-03-18T10:52:21.295Z,7.07
2023-03-18T10:54:52.426Z,7.25
2023-03-18T10:57:22.021Z,8.15
2023-03-18T10:59:52.120Z,7.10
2023-03-18T11:02:38.744Z,7.20
2023-03-18T11:05:22.420Z,7.53
2023-03-18T11:08:32.576Z,7.32
2023-03-18T11:11:15.216Z,6.80
2023-03-18T11:13:57.019Z,6.53
2023-03-18T11:16:38.103Z,6.40
2023-03-18T11:19:29.805Z,6.30
2023-03-18T11:22:16.331Z,6.70
2023-03-18T11:24:43.691Z,6.72
2023-03-18T11:27:16.675Z,6.57
2023-03-18T11:29:57.869Z,7.25
2023-03-18T11:32:32.045Z,6.40
2023-03-18T11:35:02.282Z,5.70
2023-03-18T11:37:40.019Z,5.95
2023-03-18T12:00:17.245Z,4.60
2023-03-18T12:03:29.785Z,4.10
2023-03-18T12:06:24.973Z,3.35
2023-03-18T12:09:01.492Z,3.70
2023-03-18T12:12:08.230Z,3.78
2023-03-18T12:14:45.754Z,3.63
2023-03-18T12:17:33.923Z,3.67
2023-03-18T12:20:09.946Z,3.22
2023-03-18T12:23:03.238Z,3.45
2023-03-18T12:25:59.086Z,3.47
2023-03-18T12:29:14.342Z,3.63
2023-03-18T12:31:59.362Z,4.10
2023-03-18T12:34:46.694Z,4.95
2023-03-18T12:38:03.782Z,5.28
2023-03-18T12:41:09.764Z,4.70
2023-03-18T12:43:46.389Z,4.10
2023-03-18T12:46:29.273Z,4.15
2023-03-18T12:49:14.531Z,4.03
2023-03-18T12:52:01.879Z,4.35
2023-03-18T12:54:41.917Z,4.30
2023-03-18T12:57:24.582Z,4.50
2023-03-18T13:00:06.675Z,3.88
2023-03-18T13:03:30.998Z,3.42
2023-03-18T13:06:10.057Z,3.25
2023-03-18T13:08:57.329Z,3.88
2023-03-18T13:11:48.201Z,3.08
2023-03-18T13:14:50.335Z,3.30
2023-03-18T13:17:29.554Z,3.75
2023-03-18T13:20:11.019Z,3.00
2023-03-18T13:22:43.909Z,2.78
2023-03-18T13:25:20.025Z,2.85
2023-03-18T13:28:26.766Z,3.38
2023-03-18T13:31:17.339Z,2.88
2023-03-18T13:34:36.651Z,2.83
2023-03-18T13:37:32.818Z,3.50
2023-03-18T13:40:20.234Z,3.55
2023-03-18T13:42:51.183Z,3.92
2023-03-18T13:45:37.662Z,3.70
2023-03-18T13:48:34.646Z,3.72
2023-03-18T13:51:21.728Z,3.85
2023-03-18T13:53:50.547Z,3.90
2023-03-18T13:56:33.790Z,3.80
2023-03-18T13:59:06.423Z,3.85
2023-03-18T14:01:36.347Z,2.95
2023-03-18T14:04:44.097Z,2.70
2023-03-18T14:07:22.403Z,2.63
2023-03-18T14:10:18.301Z,2.92
2023-03-18T14:12:49.692Z,3.03
2023-03-18T14:15:39.615Z,2.60
2023-03-18T14:18:27.266Z,3.03
2023-03-18T14:21:01.476Z,2.40
2023-03-18T14:24:15.965Z,2.42
2023-03-18T14:26:58.249Z,3.17
2023-03-18T14:29:31.082Z,2.90
2023-03-18T14:32:00.922Z,2.55
2023-03-18T14:34:33.380Z,2.58
2023-03-18T14:37:00.205Z,2.47
2023-03-18T14:39:44.004Z,2.75
2023-03-18T14:42:35.353Z,2.30
2023-03-18T14:45:41.419Z,2.30
2023-03-18T14:48:21.400Z,2.33
2023-03-18T14:50:52.393Z,2.13
2023-03-18T14:53:30.923Z,1.67
2023-03-18T14:55:58.989Z,1.27
2023-03-18T14:58:28.043Z,1.33
2023-03-18T15:01:09.023Z,1.52
2023-03-18T15:03:40.635Z,1.80
2023-03-18T15:06:08.262Z,2.00
2023-03-18T15:08:48.238Z,2.10
2023-03-18T15:11:18.702Z,2.40
2023-03-18T15:13:46.247Z,2.70
2023-03-18T15:16:23.542Z,2.70
2023-03-18T15:18:55.909Z,3.10
2023-03-18T15:21:35.516Z,3.15
2023-03-18T15:24:08.152Z,2.75
2023-03-18T15:26:39.858Z,3.13
2023-03-18T15:29:35.733Z,3.00
2023-03-18T15:32:32.287Z,2.85
2023-03-18T15:35:10.678Z,3.30
2023-03-18T15:37:43.813Z,2.95
2023-03-18T15:40:29.854Z,2.33
2023-03-18T15:43:04.457Z,2.00
2023-03-18T15:45:33.565Z,2.40
2023-03-18T15:48:24.446Z,2.30
2023-03-18T15:50:58.786Z,2.15
2023-03-18T15:53:39.728Z,1.80
2023-03-18T15:56:31.720Z,1.95
2023-03-18T15:59:12.038Z,1.60
2023-03-18T16:01:40.131Z,1.50
2023-03-18T16:04:13.700Z,1.73
2023-03-18T16:06:40.591Z,1.40
2023-03-18T16:09:24.293Z,1.80
2023-03-18T16:12:00.333Z,1.50
2023-03-18T16:14:42.788Z,1.63
2023-03-18T16:17:21.136Z,2.00
2023-03-18T16:19:53.753Z,1.52
2023-03-18T16:22:20.825Z,1.60
2023-03-18T16:24:47.845Z,1.60
2023-03-18T16:27:39.861Z,2.20
2023-03-18T16:30:17.929Z,1.98
2023-03-18T16:32:45.944Z,1.75
2023-03-18T16:35:19.331Z,1.88
2023-03-18T16:37:48.360Z,1.80
2023-03-18T16:40:17.575Z,1.75
2023-03-18T16:42:47.873Z,1.65
2023-03-18T16:45:22.456Z,2.00
2023-03-18T16:47:51.865Z,1.95
2023-03-18T16:50:23.147Z,2.00
2023-03-18T16:52:50.687Z,1.90
2023-03-18T16:55:19.228Z,1.70
2023-03-18T16:58:03.805Z,1.83
2023-03-18T17:00:32.687Z,1.55
2023-03-18T17:03:01.496Z,1.70
2023-03-18T17:05:29.075Z,1.70
2023-03-18T17:07:55.996Z,2.13
2023-03-18T17:10:26.297Z,1.58
2023-03-18T17:12:59.501Z,2.00
2023-03-18T17:15:32.393Z,1.85
2023-03-18T17:17:59.965Z,2.67
2023-03-18T17:20:32.299Z,1.98
2023-03-18T17:23:00.984Z,3.42
2023-03-18T17:25:30.762Z,2.80
2023-03-18T17:28:06.859Z,3.22
2023-03-18T17:30:39.720Z,3.42
2023-03-18T17:33:27.067Z,3.75
2023-03-18T17:35:55.010Z,3.53
2023-03-18T17:38:22.237Z,2.90
2023-03-18T17:40:50.424Z,4.05
2023-03-18T17:43:36.907Z,3.78
2023-03-18T17:46:05.316Z,3.08
2023-03-18T17:48:38.135Z,2.85
2023-03-18T17:51:13.658Z,2.58
2023-03-18T17:53:51.308Z,3.00
2023-03-18T17:56:20.141Z,2.80
2023-03-18T17:58:51.146Z,3.50
2023-03-18T18:01:26.624Z,3.60
2023-03-18T18:03:57.013Z,2.92
2023-03-18T18:06:28.869Z,2.55
2023-03-18T18:09:00.097Z,2.45
2023-03-18T18:11:32.415Z,3.08
2023-03-18T18:14:39.785Z,2.78
2023-03-18T18:17:15.876Z,4.45
2023-03-18T18:19:44.054Z,3.00
2023-03-18T18:22:17.706Z,2.67
2023-03-18T18:24:46.952Z,2.60
2023-03-18T18:27:15.326Z,2.50
2023-03-18T18:29:49.052Z,2.28
2023-03-18T18:32:16.297Z,2.28
2023-03-18T18:34:43.253Z,2.40
2023-03-18T18:37:10.281Z,2.45
2023-03-18T18:39:37.138Z,2.28
2023-03-18T18:42:04.450Z,2.13
2023-03-18T18:44:31.680Z,2.60
2023-03-18T18:46:58.770Z,2.60
2023-03-18T18:49:25.878Z,2.80
2023-03-18T18:51:55.615Z,2.55
2023-03-18T18:54:24.430Z,2.88
2023-03-18T18:56:52.191Z,2.90
2023-03-18T18:59:23.145Z,2.50
2023-03-18T19:01:51.293Z,2.28
2023-03-18T19:04:18.186Z,2.30
2023-03-18T19:06:46.260Z,2.10
2023-03-18T19:09:20.850Z,2.30
2023-03-18T19:11:49.378Z,1.90
2023-03-18T19:14:26.207Z,2.30
2023-03-18T19:16:58.222Z,2.15
2023-03-18T19:19:29.387Z,2.63
2023-03-18T19:21:57.340Z,2.38
2023-03-18T19:24:30.515Z,2.30
2023-03-18T19:27:02.494Z,2.22
2023-03-18T19:29:30.574Z,2.47
2023-03-18T19:31:57.583Z,4.10
2023-03-18T19:34:24.962Z,4.75
2023-03-18T19:36:56.136Z,4.20
2023-03-18T19:39:23.224Z,4.93
2023-03-18T19:41:51.374Z,3.05
2023-03-18T19:44:26.094Z,2.17
2023-03-18T19:46:56.276Z,2.10
2023-03-18T19:49:35.489Z,1.88
2023-03-18T19:52:15.316Z,2.30
2023-03-18T19:54:48.169Z,1.77
2023-03-18T19:57:24.387Z,2.22
2023-03-18T19:59:53.715Z,2.05
2023-03-18T20:02:27.392Z,2.00
2023-03-18T20:04:58.135Z,2.17
2023-03-18T20:07:29.881Z,2.78
2023-03-18T20:09:57.191Z,2.17
2023-03-18T20:12:36.432Z,1.98
2023-03-18T20:15:14.798Z,2.10
2023-03-18T20:17:45.625Z,1.88
2023-03-18T20:20:24.091Z,1.70
2023-03-18T20:23:17.544Z,2.28
2023-03-18T20:25:46.718Z,1.98
2023-03-18T20:28:17.618Z,1.83
2023-03-18T20:30:46.638Z,2.00
2023-03-18T20:33:13.801Z,1.77
2023-03-18T20:35:44.179Z,1.90
2023-03-18T20:38:28.300Z,1.80
2023-03-18T20:40:55.613Z,2.03
2023-03-18T20:43:25.451Z,2.30
2023-03-18T20:45:52.920Z,2.55
2023-03-18T20:48:22.250Z,2.40
2023-03-18T20:50:50.585Z,2.55
2023-03-18T20:53:21.813Z,3.10
2023-03-18T20:55:49.597Z,4.65
2023-03-18T20:58:22.191Z,4.40
2023-03-18T21:00:50.724Z,2.50
2023-03-18T21:03:23.793Z,1.80
2023-03-18T21:05:52.967Z,2.58
2023-03-18T21:08:20.118Z,2.30
2023-03-18T21:10:46.898Z,2.53
2023-03-18T21:13:38.011Z,1.30
2023-03-18T21:16:10.759Z,1.17
2023-03-18T21:18:37.729Z,1.30
2023-03-18T21:21:04.776Z,1.10
2023-03-18T21:23:34.437Z,1.23
2023-03-18T21:26:01.953Z,1.10
2023-03-18T21:28:30.509Z,1.65
2023-03-18T21:30:58.582Z,1.00
2023-03-18T21:33:35.020Z,1.40
2023-03-18T21:36:02.749Z,1.20
2023-03-18T21:38:32.340Z,0.77
2023-03-18T21:41:01.575Z,0.95
2023-03-18T21:43:40.339Z,1.10
2023-03-18T21:46:15.376Z,0.80
2023-03-18T21:48:42.226Z,0.70
2023-03-18T21:51:38.493Z,0.75
2023-03-18T21:54:22.708Z,0.70
2023-03-18T21:56:49.518Z,0.60
2023-03-18T21:59:16.330Z,0.77
2023-03-18T22:01:43.099Z,0.80
2023-03-18T22:04:09.926Z,0.90
2023-03-18T22:06:37.210Z,0.70
2023-03-18T22:09:04.122Z,0.80
2023-03-18T22:11:31.530Z,0.80
2023-03-18T22:13:58.342Z,0.80
2023-03-18T22:16:25.295Z,1.42
2023-03-18T22:18:52.335Z,0.90
2023-03-18T22:21:27.563Z,1.02
2023-03-18T22:23:57.942Z,1.10
2023-03-18T22:26:24.808Z,1.10
2023-03-18T22:28:51.675Z,1.05
2023-03-18T22:31:26.667Z,1.25
2023-03-18T22:33:54.153Z,1.15
2023-03-18T22:36:22.486Z,1.20
2023-03-18T22:38:49.956Z,0.90
2023-03-18T22:41:21.062Z,0.80
2023-03-18T22:43:49.095Z,1.35
2023-03-18T22:46:16.058Z,0.95
2023-03-18T22:48:43.348Z,1.00
2023-03-18T22:51:27.508Z,1.20
2023-03-18T22:53:55.242Z,1.20
2023-03-18T22:56:23.205Z,1.23
2023-03-18T22:58:51.172Z,1.00
2023-03-18T23:01:26.440Z,1.05
2023-03-18T23:03:53.189Z,1.17
2023-03-18T23:06:23.758Z,1.10
2023-03-18T23:08:50.738Z,1.15
2023-03-18T23:11:18.286Z,1.38
2023-03-18T23:13:49.929Z,1.40
2023-03-18T23:16:21.137Z,1.70
2023-03-18T23:18:49.297Z,1.40
2023-03-18T23:21:25.435Z,1.40
2023-03-18T23:23:54.307Z,1.58
2023-03-18T23:26:21.490Z,1.58
2023-03-18T23:28:48.982Z,1.90
2023-03-18T23:31:16.747Z,1.80
2023-03-18T23:33:44.676Z,1.70
2023-03-18T23:36:12.140Z,1.50
2023-03-18T23:38:39.248Z,1.58
2023-03-18T23:41:07.158Z,1.90
2023-03-18T23:43:34.094Z,1.55
2023-03-18T23:46:02.156Z,1.77
2023-03-18T23:48:29.356Z,1.88
2023-03-18T23:50:56.172Z,1.80
2023-03-18T23:53:23.094Z,1.60
2023-03-18T23:55:50.212Z,1.90
2023-03-18T23:58:17.080Z,1.65
